»·PEaware :: N939MA KSBA-KBUR

N939MA :: KSBA-KBUR

FLIGHT INFORMATION

Flight Status: Arrived
Operator: Privately registered:
United States
More flights under this callsign
Pilot: Lary E. (11379)
Aircraft: CESSNA 172 SKYHAWK
(C172)
More flights by this aircraft type
Origin: KSBA Santa Barbara Mun
United States
Destination: KBUR Bob Hope-Burbank
United States
More flights between these airports :: More routes between these airports
Route: KSBA FIM KBUR
File this flight plan on PilotEdge
Remarks:
Altitude:
(Current/Filed)
7,500ft
Speed:
(Current/Filed)
110kts
Departed: 05-Oct-18 01:41 PM
Arrived: 05-Oct-18 02:28 PM
Distance/Time
Traveled:
75nm/0:47
Distance/Time
To Go:
Arrived

Flight Plot

Page will automatically refresh every two minutes.


Map Options




Map Legend


Flown Route
Filed Route
Departure Airport
Arrival Airport
Navaid (VOR, NDB)
Fix

Horizontal Profiles

Position Reports

Time Latitude Longitude Heading Altitude Ground
Speed
05-Oct-18 13:31 34.422664 -119.835593 340 10ft 0kts
05-Oct-18 13:32 34.422664 -119.835593 340 10ft 0kts
05-Oct-18 13:33 34.422664 -119.835593 340 10ft 0kts
05-Oct-18 13:34 34.422664 -119.835593 340 10ft 0kts
05-Oct-18 13:35 34.422664 -119.835593 340 10ft 0kts
05-Oct-18 13:36 34.422664 -119.835593 340 10ft 0kts
05-Oct-18 13:37 34.422664 -119.835593 340 10ft 0kts
05-Oct-18 13:38 34.422664 -119.835593 340 10ft 0kts
05-Oct-18 13:39 34.422717 -119.835755 263 10ft 5kts
05-Oct-18 13:40 34.424735 -119.837771 344 13ft 16kts
05-Oct-18 13:41 34.429938 -119.839334 343 14ft 20kts
05-Oct-18 13:42 34.430589 -119.839999 264 14ft 4kts
05-Oct-18 13:43 34.415697 -119.835116 162 661ft 78kts
05-Oct-18 13:44 34.393813 -119.824276 150 1382ft 101kts
05-Oct-18 13:45 34.370254 -119.807507 124 1925ft 85kts
05-Oct-18 13:46 34.373480 -119.780809 73 3012ft 86kts
05-Oct-18 13:47 34.376407 -119.752571 84 4082ft 83kts
05-Oct-18 13:48 34.378827 -119.724628 89 5069ft 84kts
05-Oct-18 13:49 34.383074 -119.696753 73 6004ft 84kts
05-Oct-18 13:50 34.390388 -119.668967 78 6845ft 88kts
05-Oct-18 13:51 34.394984 -119.639884 89 7649ft 90kts
05-Oct-18 13:52 34.392102 -119.607134 98 7927ft 125kts
05-Oct-18 13:53 34.388683 -119.566395 92 7631ft 121kts
05-Oct-18 13:54 34.388425 -119.528590 87 7518ft 105kts
05-Oct-18 13:55 34.388357 -119.493831 88 7469ft 102kts
05-Oct-18 13:56 34.388024 -119.459293 89 7408ft 101kts
05-Oct-18 13:57 34.390610 -119.426423 80 7428ft 99kts
05-Oct-18 13:58 34.394091 -119.392919 81 7560ft 107kts
05-Oct-18 13:59 34.395055 -119.355319 91 7624ft 120kts
05-Oct-18 14:00 34.392036 -119.317190 97 7578ft 120kts
05-Oct-18 14:01 34.387452 -119.276621 95 7513ft 122kts
05-Oct-18 14:02 34.382691 -119.236316 99 7475ft 120kts
05-Oct-18 14:03 34.377144 -119.196129 98 7457ft 119kts
05-Oct-18 14:04 34.372522 -119.155219 94 7346ft 122kts
05-Oct-18 14:05 34.371161 -119.115133 91 7395ft 119kts
05-Oct-18 14:06 34.368506 -119.075463 91 7446ft 118kts
05-Oct-18 14:07 34.365944 -119.035889 94 7486ft 117kts
05-Oct-18 14:08 34.362199 -118.996816 96 7551ft 116kts
05-Oct-18 14:09 34.359816 -118.957619 92 7586ft 119kts
05-Oct-18 14:10 34.357155 -118.917568 92 7577ft 118kts
05-Oct-18 14:11 34.354940 -118.877745 103 7617ft 116kts
05-Oct-18 14:12 34.342896 -118.840886 110 7625ft 118kts
05-Oct-18 14:13 34.329874 -118.803062 112 7514ft 122kts
05-Oct-18 14:14 34.317344 -118.763935 110 7278ft 126kts
05-Oct-18 14:15 34.304287 -118.725656 111 6831ft 125kts
05-Oct-18 14:16 34.291625 -118.683771 109 5894ft 133kts
05-Oct-18 14:17 34.280671 -118.644053 101 5180ft 110kts
05-Oct-18 14:18 34.274175 -118.611583 102 4484ft 95kts
05-Oct-18 14:19 34.268982 -118.582479 100 3875ft 93kts
05-Oct-18 14:20 34.264563 -118.552879 103 3230ft 94kts
05-Oct-18 14:21 34.255774 -118.529354 118 2863ft 81kts
05-Oct-18 14:22 34.241096 -118.511215 141 2560ft 84kts
05-Oct-18 14:23 34.219308 -118.504064 183 2205ft 92kts
05-Oct-18 14:24 34.197844 -118.498555 103 1911ft 76kts
05-Oct-18 14:25 34.194739 -118.474661 96 2088ft 88kts
05-Oct-18 14:26 34.192932 -118.449599 88 2256ft 90kts
05-Oct-18 14:27 34.195519 -118.424782 78 2104ft 71kts
05-Oct-18 14:28 34.197863 -118.404000 82 1720ft 66kts
05-Oct-18 14:29 34.198226 -118.382993 88 1078ft 62kts
05-Oct-18 14:30 34.197858 -118.366573 93 724ft 25kts
05-Oct-18 14:31 34.198619 -118.364613 0 723ft 0kts
05-Oct-18 14:32 34.198992 -118.363606 92 724ft 14kts
05-Oct-18 14:33 34.199926 -118.359395 74 721ft 12kts
05-Oct-18 14:34 34.200148 -118.358502 74 720ft 0kts
05-Oct-18 14:35 34.200194 -118.358374 58 720ft 0kts

Navigation Log

Ident Type
1. KSBA Airport
2. FIM Navaid
3. KBUR Airport